sensor_id;sensor_type;location;lat;lon;timestamp;pressure;altitude;pressure_sealevel;temperature;humidity
22104;BME280;11218;48.886;9.426;2023-05-11T00:02:11;97801.72;;;13.26;82.33
22104;BME280;11218;48.886;9.426;2023-05-11T00:04:39;97801.72;;;13.26;82.13
22104;BME280;11218;48.886;9.426;2023-05-11T00:07:08;97801.19;;;13.34;81.47
22104;BME280;11218;48.886;9.426;2023-05-11T00:09:36;97798.50;;;13.24;81.78
22104;BME280;11218;48.886;9.426;2023-05-11T00:12:07;97806.88;;;13.23;81.80
22104;BME280;11218;48.886;9.426;2023-05-11T00:14:36;97807.97;;;13.22;81.86
22104;BME280;11218;48.886;9.426;2023-05-11T00:17:05;97802.81;;;13.20;81.95
22104;BME280;11218;48.886;9.426;2023-05-11T00:19:33;97796.06;;;13.18;82.16
22104;BME280;11218;48.886;9.426;2023-05-11T00:22:01;97795.25;;;13.17;82.21
22104;BME280;11218;48.886;9.426;2023-05-11T00:24:29;97805.25;;;13.17;82.28
22104;BME280;11218;48.886;9.426;2023-05-11T00:26:57;97792.78;;;13.15;82.70
22104;BME280;11218;48.886;9.426;2023-05-11T00:29:26;97800.09;;;13.15;83.05
22104;BME280;11218;48.886;9.426;2023-05-11T00:31:55;97788.47;;;13.09;82.97
22104;BME280;11218;48.886;9.426;2023-05-11T00:34:23;97786.31;;;13.06;82.64
22104;BME280;11218;48.886;9.426;2023-05-11T00:36:52;97787.94;;;13.07;83.01
22104;BME280;11218;48.886;9.426;2023-05-11T00:39:20;97792.00;;;13.05;82.82
22104;BME280;11218;48.886;9.426;2023-05-11T00:41:48;97785.25;;;13.02;83.16
22104;BME280;11218;48.886;9.426;2023-05-11T00:44:16;97789.56;;;12.98;82.99
22104;BME280;11218;48.886;9.426;2023-05-11T00:46:45;97785.25;;;12.97;83.25
22104;BME280;11218;48.886;9.426;2023-05-11T00:49:15;97783.09;;;12.94;83.27
22104;BME280;11218;48.886;9.426;2023-05-11T00:51:47;97784.97;;;12.94;83.39
22104;BME280;11218;48.886;9.426;2023-05-11T00:54:15;97790.09;;;12.90;83.72
22104;BME280;11218;48.886;9.426;2023-05-11T00:56:43;97791.47;;;12.93;83.66
22104;BME280;11218;48.886;9.426;2023-05-11T00:59:11;97787.13;;;12.92;83.14
22104;BME280;11218;48.886;9.426;2023-05-11T01:01:40;97791.72;;;12.91;83.19
22104;BME280;11218;48.886;9.426;2023-05-11T01:04:08;97791.72;;;12.91;82.52
22104;BME280;11218;48.886;9.426;2023-05-11T01:06:45;97783.09;;;12.89;83.32
22104;BME280;11218;48.886;9.426;2023-05-11T01:09:26;97790.66;;;12.92;82.90
22104;BME280;11218;48.886;9.426;2023-05-11T01:12:02;97790.09;;;12.90;83.45
22104;BME280;11218;48.886;9.426;2023-05-11T01:14:34;97788.50;;;12.89;83.23
22104;BME280;11218;48.886;9.426;2023-05-11T01:17:12;97786.88;;;12.88;83.53
22104;BME280;11218;48.886;9.426;2023-05-11T01:19:50;97792.28;;;12.88;83.68
22104;BME280;11218;48.886;9.426;2023-05-11T01:22:29;97793.63;;;12.86;83.07
22104;BME280;11218;48.886;9.426;2023-05-11T01:25:06;97790.38;;;12.83;83.63
22104;BME280;11218;48.886;9.426;2023-05-11T01:27:47;97792.81;;;12.80;84.24
22104;BME280;11218;48.886;9.426;2023-05-11T01:30:28;97792.53;;;12.81;83.84
22104;BME280;11218;48.886;9.426;2023-05-11T01:32:59;97791.19;;;12.84;83.89
22104;BME280;11218;48.886;9.426;2023-05-11T01:35:31;97789.56;;;12.78;83.86
22104;BME280;11218;48.886;9.426;2023-05-11T01:38:05;97783.63;;;12.76;83.84
22104;BME280;11218;48.886;9.426;2023-05-11T01:40:38;97786.88;;;12.73;83.84
22104;BME280;11218;48.886;9.426;2023-05-11T01:43:11;97791.72;;;12.71;84.03
22104;BME280;11218;48.886;9.426;2023-05-11T01:45:45;97794.41;;;12.71;84.15
22104;BME280;11218;48.886;9.426;2023-05-11T01:48:20;97788.47;;;12.69;84.58
22104;BME280;11218;48.886;9.426;2023-05-11T01:50:50;97791.44;;;12.67;84.66
22104;BME280;11218;48.886;9.426;2023-05-11T01:53:23;97791.47;;;12.62;84.04
22104;BME280;11218;48.886;9.426;2023-05-11T01:55:54;97784.47;;;12.61;84.16
22104;BME280;11218;48.886;9.426;2023-05-11T01:58:24;97789.03;;;12.61;84.13
22104;BME280;11218;48.886;9.426;2023-05-11T02:00:56;97791.75;;;12.61;84.69
22104;BME280;11218;48.886;9.426;2023-05-11T02:03:27;97793.91;;;12.59;84.01
22104;BME280;11218;48.886;9.426;2023-05-11T02:05:57;97790.66;;;12.57;83.86
22104;BME280;11218;48.886;9.426;2023-05-11T02:08:28;97790.66;;;12.52;83.78
22104;BME280;11218;48.886;9.426;2023-05-11T02:10:58;97789.56;;;12.53;84.09
22104;BME280;11218;48.886;9.426;2023-05-11T02:13:28;97789.56;;;12.53;84.46
22104;BME280;11218;48.886;9.426;2023-05-11T02:15:59;97786.34;;;12.56;84.10
22104;BME280;11218;48.886;9.426;2023-05-11T02:18:30;97787.69;;;12.58;83.70
22104;BME280;11218;48.886;9.426;2023-05-11T02:21:00;97794.97;;;12.58;84.02
22104;BME280;11218;48.886;9.426;2023-05-11T02:23:30;97797.69;;;12.58;83.55
22104;BME280;11218;48.886;9.426;2023-05-11T02:26:03;97798.50;;;12.58;83.63
22104;BME280;11218;48.886;9.426;2023-05-11T02:28:33;97795.25;;;12.61;83.71
22104;BME280;11218;48.886;9.426;2023-05-11T02:31:08;97790.38;;;12.63;82.74
22104;BME280;11218;48.886;9.426;2023-05-11T02:33:43;97785.81;;;12.59;82.66
22104;BME280;11218;48.886;9.426;2023-05-11T02:36:20;97797.69;;;12.58;82.98
22104;BME280;11218;48.886;9.426;2023-05-11T02:38:53;97790.38;;;12.53;83.67
22104;BME280;11218;48.886;9.426;2023-05-11T02:41:25;97786.88;;;12.53;83.84
22104;BME280;11218;48.886;9.426;2023-05-11T02:43:57;97793.63;;;12.50;83.77
22104;BME280;11218;48.886;9.426;2023-05-11T02:46:33;97790.34;;;12.38;84.06
22104;BME280;11218;48.886;9.426;2023-05-11T02:49:04;97782.25;;;12.33;84.45
22104;BME280;11218;48.886;9.426;2023-05-11T02:51:36;97785.50;;;12.35;84.25
22104;BME280;11218;48.886;9.426;2023-05-11T02:54:05;97780.63;;;12.32;84.86
22104;BME280;11218;48.886;9.426;2023-05-11T02:56:37;97781.72;;;12.36;85.38
22104;BME280;11218;48.886;9.426;2023-05-11T02:59:05;97777.66;;;12.33;85.26
22104;BME280;11218;48.886;9.426;2023-05-11T03:01:35;97774.97;;;12.33;85.17
22104;BME280;11218;48.886;9.426;2023-05-11T03:04:05;97778.75;;;12.32;85.45
22104;BME280;11218;48.886;9.426;2023-05-11T03:06:34;97780.38;;;12.33;85.89
22104;BME280;11218;48.886;9.426;2023-05-11T03:09:03;97780.09;;;12.35;85.38
22104;BME280;11218;48.886;9.426;2023-05-11T03:11:34;97777.13;;;12.36;85.10
22104;BME280;11218;48.886;9.426;2023-05-11T03:14:03;97773.34;;;12.37;84.79
22104;BME280;11218;48.886;9.426;2023-05-11T03:16:32;97774.44;;;12.36;85.00
22104;BME280;11218;48.886;9.426;2023-05-11T03:19:04;97774.16;;;12.33;85.08
22104;BME280;11218;48.886;9.426;2023-05-11T03:21:33;97769.84;;;12.32;85.06
22104;BME280;11218;48.886;9.426;2023-05-11T03:24:05;97766.31;;;12.31;85.22
22104;BME280;11218;48.886;9.426;2023-05-11T03:26:34;97773.34;;;12.32;85.02
22104;BME280;11218;48.886;9.426;2023-05-11T03:29:03;97772.53;;;12.32;84.94
22104;BME280;11218;48.886;9.426;2023-05-11T03:31:31;97777.13;;;12.31;85.30
22104;BME280;11218;48.886;9.426;2023-05-11T03:34:00;97770.38;;;12.29;84.89
22104;BME280;11218;48.886;9.426;2023-05-11T03:36:30;97768.47;;;12.29;84.56
22104;BME280;11218;48.886;9.426;2023-05-11T03:39:03;97772.25;;;12.28;85.44
22104;BME280;11218;48.886;9.426;2023-05-11T03:41:33;97773.88;;;12.29;85.52
22104;BME280;11218;48.886;9.426;2023-05-11T03:44:04;97765.78;;;12.29;84.91
22104;BME280;11218;48.886;9.426;2023-05-11T03:46:34;97770.09;;;12.30;84.80
22104;BME280;11218;48.886;9.426;2023-05-11T03:49:06;97770.91;;;12.31;84.85
22104;BME280;11218;48.886;9.426;2023-05-11T03:51:40;97774.97;;;12.33;85.12
22104;BME280;11218;48.886;9.426;2023-05-11T03:54:08;97774.97;;;12.33;85.08
22104;BME280;11218;48.886;9.426;2023-05-11T03:56:37;97772.53;;;12.32;85.43
22104;BME280;11218;48.886;9.426;2023-05-11T03:59:06;97772.00;;;12.30;84.91
22104;BME280;11218;48.886;9.426;2023-05-11T04:01:35;97764.72;;;12.30;84.79
22104;BME280;11218;48.886;9.426;2023-05-11T04:04:04;97766.59;;;12.30;84.46
22104;BME280;11218;48.886;9.426;2023-05-11T04:06:32;97768.22;;;12.31;85.22
22104;BME280;11218;48.886;9.426;2023-05-11T04:09:02;97767.13;;;12.32;84.62
22104;BME280;11218;48.886;9.426;2023-05-11T04:11:34;97767.41;;;12.30;85.24
22104;BME280;11218;48.886;9.426;2023-05-11T04:14:02;97768.75;;;12.28;85.90
22104;BME280;11218;48.886;9.426;2023-05-11T04:16:30;97764.97;;;12.29;85.27
22104;BME280;11218;48.886;9.426;2023-05-11T04:18:58;97771.44;;;12.28;85.08
22104;BME280;11218;48.886;9.426;2023-05-11T04:21:28;97769.56;;;12.28;85.62
22104;BME280;11218;48.886;9.426;2023-05-11T04:23:56;97765.78;;;12.29;85.04
22104;BME280;11218;48.886;9.426;2023-05-11T04:26:26;97763.63;;;12.31;84.86
22104;BME280;11218;48.886;9.426;2023-05-11T04:28:53;97759.03;;;12.32;84.90
22104;BME280;11218;48.886;9.426;2023-05-11T04:31:21;97770.13;;;12.40;84.47
22104;BME280;11218;48.886;9.426;2023-05-11T04:33:50;97765.53;;;12.36;83.52
22104;BME280;11218;48.886;9.426;2023-05-11T04:36:18;97767.41;;;12.30;84.09
22104;BME280;11218;48.886;9.426;2023-05-11T04:38:47;97761.19;;;12.25;84.56
22104;BME280;11218;48.886;9.426;2023-05-11T04:41:15;97756.06;;;12.23;84.58
22104;BME280;11218;48.886;9.426;2023-05-11T04:43:45;97763.88;;;12.25;85.33
22104;BME280;11218;48.886;9.426;2023-05-11T04:46:13;97759.84;;;12.27;85.56
22104;BME280;11218;48.886;9.426;2023-05-11T04:48:42;97765.50;;;12.31;85.89
22104;BME280;11218;48.886;9.426;2023-05-11T04:51:10;97767.13;;;12.32;85.25
22104;BME280;11218;48.886;9.426;2023-05-11T04:53:38;97769.03;;;12.36;85.08
22104;BME280;11218;48.886;9.426;2023-05-11T04:56:07;97772.53;;;12.37;85.16
22104;BME280;11218;48.886;9.426;2023-05-11T04:58:35;97774.72;;;12.40;85.64
22104;BME280;11218;48.886;9.426;2023-05-11T05:01:05;97776.59;;;12.39;85.65
22104;BME280;11218;48.886;9.426;2023-05-11T05:03:33;97766.06;;;12.38;85.88
22104;BME280;11218;48.886;9.426;2023-05-11T05:06:01;97771.47;;;12.38;86.02
22104;BME280;11218;48.886;9.426;2023-05-11T05:08:29;97769.84;;;12.37;85.87
22104;BME280;11218;48.886;9.426;2023-05-11T05:10:58;97769.56;;;12.38;85.76
22104;BME280;11218;48.886;9.426;2023-05-11T05:13:26;97781.19;;;12.39;85.70
22104;BME280;11218;48.886;9.426;2023-05-11T05:15:54;97783.88;;;12.39;85.43
22104;BME280;11218;48.886;9.426;2023-05-11T05:18:24;97782.25;;;12.28;85.90
22104;BME280;11218;48.886;9.426;2023-05-11T05:20:53;97784.94;;;12.28;86.12
22104;BME280;11218;48.886;9.426;2023-05-11T05:23:21;97779.81;;;12.31;86.29
22104;BME280;11218;48.886;9.426;2023-05-11T05:25:49;97786.84;;;12.32;86.56
22104;BME280;11218;48.886;9.426;2023-05-11T05:28:17;97785.50;;;12.35;86.48
22104;BME280;11218;48.886;9.426;2023-05-11T05:30:45;97786.84;;;12.37;86.55
22104;BME280;11218;48.886;9.426;2023-05-11T05:33:14;97794.41;;;12.40;86.43
22104;BME280;11218;48.886;9.426;2023-05-11T05:35:43;97797.38;;;12.44;86.85
22104;BME280;11218;48.886;9.426;2023-05-11T05:38:12;97794.97;;;12.42;85.55
22104;BME280;11218;48.886;9.426;2023-05-11T05:40:40;97790.34;;;12.38;85.12
22104;BME280;11218;48.886;9.426;2023-05-11T05:43:08;97801.69;;;12.35;85.61
22104;BME280;11218;48.886;9.426;2023-05-11T05:45:37;97791.44;;;12.37;85.34
22104;BME280;11218;48.886;9.426;2023-05-11T05:48:05;97796.31;;;12.40;84.39
22104;BME280;11218;48.886;9.426;2023-05-11T05:50:35;97802.50;;;12.35;85.00
22104;BME280;11218;48.886;9.426;2023-05-11T05:53:05;97801.94;;;12.28;84.93
22104;BME280;11218;48.886;9.426;2023-05-11T05:55:33;97797.63;;;12.27;84.67
22104;BME280;11218;48.886;9.426;2023-05-11T05:58:01;97798.44;;;12.28;85.12
22104;BME280;11218;48.886;9.426;2023-05-11T06:00:29;97804.66;;;12.28;85.29
22104;BME280;11218;48.886;9.426;2023-05-11T06:02:57;97800.88;;;12.34;85.09
22104;BME280;11218;48.886;9.426;2023-05-11T06:05:26;97803.31;;;12.36;85.32
22104;BME280;11218;48.886;9.426;2023-05-11T06:07:54;97804.66;;;12.38;85.74
22104;BME280;11218;48.886;9.426;2023-05-11T06:10:37;97808.69;;;12.31;85.85
22104;BME280;11218;48.886;9.426;2023-05-11T06:13:06;97807.88;;;12.30;86.03
22104;BME280;11218;48.886;9.426;2023-05-11T06:15:35;97812.19;;;12.26;85.19
22104;BME280;11218;48.886;9.426;2023-05-11T06:18:03;97802.75;;;12.24;85.85
22104;BME280;11218;48.886;9.426;2023-05-11T06:20:31;97805.19;;;12.30;85.34
22104;BME280;11218;48.886;9.426;2023-05-11T06:22:59;97814.38;;;12.29;85.93
22104;BME280;11218;48.886;9.426;2023-05-11T06:25:28;97799.53;;;12.32;86.29
22104;BME280;11218;48.886;9.426;2023-05-11T06:27:57;97809.00;;;12.39;85.80
22104;BME280;11218;48.886;9.426;2023-05-11T06:30:25;97811.69;;;12.34;85.46
22104;BME280;11218;48.886;9.426;2023-05-11T06:32:53;97808.69;;;12.31;86.32
22104;BME280;11218;48.886;9.426;2023-05-11T06:35:22;97809.53;;;12.36;86.60
22104;BME280;11218;48.886;9.426;2023-05-11T06:37:50;97812.50;;;12.40;85.92
22104;BME280;11218;48.886;9.426;2023-05-11T06:40:18;97812.50;;;12.45;86.27
22104;BME280;11218;48.886;9.426;2023-05-11T06:42:46;97803.06;;;12.42;86.11
22104;BME280;11218;48.886;9.426;2023-05-11T06:45:16;97813.03;;;12.42;86.86
22104;BME280;11218;48.886;9.426;2023-05-11T06:47:44;97809.53;;;12.46;86.81
22104;BME280;11218;48.886;9.426;2023-05-11T06:50:12;97806.03;;;12.46;86.40
22104;BME280;11218;48.886;9.426;2023-05-11T06:52:41;97812.25;;;12.52;87.02
22104;BME280;11218;48.886;9.426;2023-05-11T06:55:11;97804.69;;;12.48;86.95
22104;BME280;11218;48.886;9.426;2023-05-11T06:57:40;97808.47;;;12.47;86.99
22104;BME280;11218;48.886;9.426;2023-05-11T07:00:09;97805.22;;;12.40;87.31
22104;BME280;11218;48.886;9.426;2023-05-11T07:02:39;97801.72;;;12.45;87.23
22104;BME280;11218;48.886;9.426;2023-05-11T07:05:07;97808.72;;;12.41;87.14
22104;BME280;11218;48.886;9.426;2023-05-11T07:07:35;97808.19;;;12.39;87.28
22104;BME280;11218;48.886;9.426;2023-05-11T07:10:05;97813.31;;;12.40;87.98
22104;BME280;11218;48.886;9.426;2023-05-11T07:12:33;97815.47;;;12.38;88.70
22104;BME280;11218;48.886;9.426;2023-05-11T07:15:02;97813.56;;;12.39;88.55
22104;BME280;11218;48.886;9.426;2023-05-11T07:17:30;97817.34;;;12.38;88.74
22104;BME280;11218;48.886;9.426;2023-05-11T07:20:00;97815.22;;;12.45;88.80
22104;BME280;11218;48.886;9.426;2023-05-11T07:22:28;97815.75;;;12.47;88.69
22104;BME280;11218;48.886;9.426;2023-05-11T07:24:56;97816.31;;;12.54;89.13
22104;BME280;11218;48.886;9.426;2023-05-11T07:27:24;97819.28;;;12.58;87.38
22104;BME280;11218;48.886;9.426;2023-05-11T07:29:52;97824.69;;;12.58;88.11
22104;BME280;11218;48.886;9.426;2023-05-11T07:32:20;97815.75;;;12.52;88.63
22104;BME280;11218;48.886;9.426;2023-05-11T07:34:48;97816.56;;;12.47;88.56
22104;BME280;11218;48.886;9.426;2023-05-11T07:37:18;97816.31;;;12.54;88.96
22104;BME280;11218;48.886;9.426;2023-05-11T07:39:46;97818.75;;;12.56;88.78
22104;BME280;11218;48.886;9.426;2023-05-11T07:42:14;97820.63;;;12.55;88.86
22104;BME280;11218;48.886;9.426;2023-05-11T07:44:42;97815.22;;;12.65;89.54
22104;BME280;11218;48.886;9.426;2023-05-11T07:47:11;97822.78;;;12.63;89.63
22104;BME280;11218;48.886;9.426;2023-05-11T07:49:39;97816.84;;;12.66;89.39
22104;BME280;11218;48.886;9.426;2023-05-11T07:52:12;97821.97;;;12.78;89.79
22104;BME280;11218;48.886;9.426;2023-05-11T07:54:42;97822.78;;;12.78;88.19
22104;BME280;11218;48.886;9.426;2023-05-11T07:57:12;97825.22;;;12.75;87.66
22104;BME280;11218;48.886;9.426;2023-05-11T07:59:40;97826.31;;;12.79;87.94
22104;BME280;11218;48.886;9.426;2023-05-11T08:02:09;97821.16;;;12.72;87.92
22104;BME280;11218;48.886;9.426;2023-05-11T08:04:42;97825.47;;;12.68;88.86
22104;BME280;11218;48.886;9.426;2023-05-11T08:07:10;97821.72;;;12.79;89.45
22104;BME280;11218;48.886;9.426;2023-05-11T08:09:38;97819.56;;;12.81;87.79
22104;BME280;11218;48.886;9.426;2023-05-11T08:12:08;97814.41;;;12.75;88.14
22104;BME280;11218;48.886;9.426;2023-05-11T08:14:36;97814.97;;;12.82;88.96
22104;BME280;11218;48.886;9.426;2023-05-11T08:17:04;97816.03;;;12.71;88.37
22104;BME280;11218;48.886;9.426;2023-05-11T08:19:33;97813.59;;;12.79;88.94
22104;BME280;11218;48.886;9.426;2023-05-11T08:22:00;97811.19;;;12.83;88.96
22104;BME280;11218;48.886;9.426;2023-05-11T08:24:29;97821.44;;;12.91;88.27
22104;BME280;11218;48.886;9.426;2023-05-11T08:26:57;97820.63;;;12.86;87.24
22104;BME280;11218;48.886;9.426;2023-05-11T08:29:26;97822.50;;;12.75;88.50
22104;BME280;11218;48.886;9.426;2023-05-11T08:31:55;97821.16;;;12.82;88.95
22104;BME280;11218;48.886;9.426;2023-05-11T08:34:24;97823.34;;;12.86;86.90
22104;BME280;11218;48.886;9.426;2023-05-11T08:36:53;97825.75;;;12.82;87.29
22104;BME280;11218;48.886;9.426;2023-05-11T08:39:31;97824.41;;;12.79;88.09
22104;BME280;11218;48.886;9.426;2023-05-11T08:42:14;97820.91;;;12.84;88.62
22104;BME280;11218;48.886;9.426;2023-05-11T08:44:46;97827.66;;;12.87;86.61
22104;BME280;11218;48.886;9.426;2023-05-11T08:47:15;97821.97;;;12.78;87.67
22104;BME280;11218;48.886;9.426;2023-05-11T08:49:49;97827.66;;;12.87;88.59
22104;BME280;11218;48.886;9.426;2023-05-11T08:52:19;97828.72;;;12.86;88.75
22104;BME280;11218;48.886;9.426;2023-05-11T08:54:47;97823.34;;;13.01;88.13
22104;BME280;11218;48.886;9.426;2023-05-11T08:57:15;97827.41;;;12.98;89.14
22104;BME280;11218;48.886;9.426;2023-05-11T08:59:45;97829.81;;;13.00;87.37
22104;BME280;11218;48.886;9.426;2023-05-11T09:02:16;97827.41;;;12.98;86.94
22104;BME280;11218;48.886;9.426;2023-05-11T09:04:45;97825.78;;;12.97;87.45
22104;BME280;11218;48.886;9.426;2023-05-11T09:07:15;97823.06;;;13.02;87.64
22104;BME280;11218;48.886;9.426;2023-05-11T09:09:45;97825.78;;;13.02;87.84
22104;BME280;11218;48.886;9.426;2023-05-11T09:12:14;97829.28;;;12.98;87.91
22104;BME280;11218;48.886;9.426;2023-05-11T09:14:42;97827.13;;;13.05;88.17
22104;BME280;11218;48.886;9.426;2023-05-11T09:17:13;97822.25;;;13.07;88.24
22104;BME280;11218;48.886;9.426;2023-05-11T09:19:58;97825.50;;;13.09;88.54
22104;BME280;11218;48.886;9.426;2023-05-11T09:22:26;97829.00;;;13.14;86.52
22104;BME280;11218;48.886;9.426;2023-05-11T09:25:00;97835.78;;;13.07;87.19
22104;BME280;11218;48.886;9.426;2023-05-11T09:27:29;97832.53;;;13.10;87.29
22104;BME280;11218;48.886;9.426;2023-05-11T09:30:09;97827.38;;;13.13;88.77
22104;BME280;11218;48.886;9.426;2023-05-11T09:32:51;97837.38;;;13.13;85.01
22104;BME280;11218;48.886;9.426;2023-05-11T09:35:24;97827.41;;;13.03;85.62
22104;BME280;11218;48.886;9.426;2023-05-11T09:38:00;97828.75;;;13.11;86.46
22104;BME280;11218;48.886;9.426;2023-05-11T09:40:34;97830.63;;;13.10;85.18
22104;BME280;11218;48.886;9.426;2023-05-11T09:43:14;97826.03;;;13.11;85.36
22104;BME280;11218;48.886;9.426;2023-05-11T09:45:44;97825.22;;;13.10;85.71
22104;BME280;11218;48.886;9.426;2023-05-11T09:48:24;97819.00;;;13.15;85.76
22104;BME280;11218;48.886;9.426;2023-05-11T09:50:59;97824.19;;;13.17;86.22
22104;BME280;11218;48.886;9.426;2023-05-11T09:53:36;97819.56;;;13.17;86.59
22104;BME280;11218;48.886;9.426;2023-05-11T09:56:06;97824.16;;;13.22;87.04
22104;BME280;11218;48.886;9.426;2023-05-11T09:58:52;97822.81;;;13.24;85.42
22104;BME280;11218;48.886;9.426;2023-05-11T10:01:31;97818.22;;;13.25;85.56
22104;BME280;11218;48.886;9.426;2023-05-11T10:04:02;97821.19;;;13.28;85.34
22104;BME280;11218;48.886;9.426;2023-05-11T10:06:49;97823.06;;;13.33;86.09
22104;BME280;11218;48.886;9.426;2023-05-11T10:09:23;97826.06;;;13.36;86.63
22104;BME280;11218;48.886;9.426;2023-05-11T10:11:52;97814.66;;;13.39;88.21
22104;BME280;11218;48.886;9.426;2023-05-11T10:14:23;97820.09;;;13.34;86.93
22104;BME280;11218;48.886;9.426;2023-05-11T10:16:52;97814.94;;;13.38;87.35
22104;BME280;11218;48.886;9.426;2023-05-11T10:19:25;97816.59;;;13.34;87.74
22104;BME280;11218;48.886;9.426;2023-05-11T10:21:54;97818.75;;;13.32;87.74
22104;BME280;11218;48.886;9.426;2023-05-11T10:24:24;97820.38;;;13.23;86.61
22104;BME280;11218;48.886;9.426;2023-05-11T10:26:52;97819.31;;;13.24;87.88
22104;BME280;11218;48.886;9.426;2023-05-11T10:29:25;97823.91;;;13.18;87.08
22104;BME280;11218;48.886;9.426;2023-05-11T10:31:56;97817.97;;;13.16;87.13
22104;BME280;11218;48.886;9.426;2023-05-11T10:34:27;97817.66;;;13.07;86.29
22104;BME280;11218;48.886;9.426;2023-05-11T10:36:59;97816.84;;;13.02;87.74
22104;BME280;11218;48.886;9.426;2023-05-11T10:39:28;97808.22;;;13.00;87.16
22104;BME280;11218;48.886;9.426;2023-05-11T10:45:16;97818.19;;;13.09;88.11
22104;BME280;11218;48.886;9.426;2023-05-11T10:51:04;97806.59;;;13.29;88.90
22104;BME280;11218;48.886;9.426;2023-05-11T10:53:53;97799.78;;;13.42;88.30
22104;BME280;11218;48.886;9.426;2023-05-11T10:56:36;97801.41;;;13.48;87.80
22104;BME280;11218;48.886;9.426;2023-05-11T10:59:24;97803.53;;;13.56;87.88
22104;BME280;11218;48.886;9.426;2023-05-11T11:01:56;97801.13;;;13.49;87.89
22104;BME280;11218;48.886;9.426;2023-05-11T11:04:41;97806.25;;;13.46;84.37
22104;BME280;11218;48.886;9.426;2023-05-11T11:07:12;97802.53;;;13.32;86.13
22104;BME280;11218;48.886;9.426;2023-05-11T11:09:55;97802.47;;;13.42;86.85
22104;BME280;11218;48.886;9.426;2023-05-11T11:12:23;97801.19;;;13.34;83.91
22104;BME280;11218;48.886;9.426;2023-05-11T11:14:54;97792.53;;;13.27;85.66
22104;BME280;11218;48.886;9.426;2023-05-11T11:17:24;97803.06;;;13.34;84.67
22104;BME280;11218;48.886;9.426;2023-05-11T11:19:53;97793.06;;;13.29;84.51
22104;BME280;11218;48.886;9.426;2023-05-11T11:22:44;97798.19;;;13.36;84.59
22104;BME280;11218;48.886;9.426;2023-05-11T11:25:15;97799.50;;;13.43;84.80
22104;BME280;11218;48.886;9.426;2023-05-11T11:28:03;97798.16;;;13.41;80.82
22104;BME280;11218;48.886;9.426;2023-05-11T11:30:31;97795.19;;;13.37;83.27
22104;BME280;11218;48.886;9.426;2023-05-11T11:33:30;97795.72;;;13.39;83.75
22104;BME280;11218;48.886;9.426;2023-05-11T11:36:00;97792.78;;;13.36;85.38
22104;BME280;11218;48.886;9.426;2023-05-11T11:38:30;97800.09;;;13.35;87.05
22104;BME280;11218;48.886;9.426;2023-05-11T11:41:00;97799.84;;;13.32;86.46
22104;BME280;11218;48.886;9.426;2023-05-11T11:43:42;97797.94;;;13.32;85.55
22104;BME280;11218;48.886;9.426;2023-05-11T11:46:24;97799.56;;;13.28;86.40
22104;BME280;11218;48.886;9.426;2023-05-11T11:49:05;97791.19;;;13.25;84.35
22104;BME280;11218;48.886;9.426;2023-05-11T11:51:35;97793.63;;;13.31;83.04
22104;BME280;11218;48.886;9.426;2023-05-11T11:54:10;97797.13;;;13.32;82.36
22104;BME280;11218;48.886;9.426;2023-05-11T11:56:42;97784.69;;;13.31;84.92
22104;BME280;11218;48.886;9.426;2023-05-11T11:59:12;97787.63;;;13.39;86.10
22104;BME280;11218;48.886;9.426;2023-05-11T12:01:42;97793.03;;;13.44;87.29
22104;BME280;11218;48.886;9.426;2023-05-11T12:04:49;97795.72;;;13.44;85.39
22104;BME280;11218;48.886;9.426;2023-05-11T12:07:19;97790.56;;;13.48;85.51
22104;BME280;11218;48.886;9.426;2023-05-11T12:09:49;97798.69;;;13.48;86.17
22104;BME280;11218;48.886;9.426;2023-05-11T12:12:19;97798.97;;;13.46;87.33
22104;BME280;11218;48.886;9.426;2023-05-11T12:14:48;97795.97;;;13.53;87.58
22104;BME280;11218;48.886;9.426;2023-05-11T12:17:23;97789.22;;;13.51;86.34
22104;BME280;11218;48.886;9.426;2023-05-11T12:19:54;97787.03;;;13.58;86.75
22104;BME280;11218;48.886;9.426;2023-05-11T12:22:23;97788.91;;;13.67;87.35
22104;BME280;11218;48.886;9.426;2023-05-11T12:24:55;97785.09;;;13.68;87.92
22104;BME280;11218;48.886;9.426;2023-05-11T12:27:26;97772.91;;;13.76;85.65
22104;BME280;11218;48.886;9.426;2023-05-11T12:29:54;97784.25;;;13.78;85.24
22104;BME280;11218;48.886;9.426;2023-05-11T12:32:27;97781.28;;;13.79;84.01
22104;BME280;11218;48.886;9.426;2023-05-11T12:34:59;97776.97;;;13.78;80.70
22104;BME280;11218;48.886;9.426;2023-05-11T12:37:28;97773.44;;;13.78;78.83
22104;BME280;11218;48.886;9.426;2023-05-11T12:39:58;97782.09;;;13.75;80.08
22104;BME280;11218;48.886;9.426;2023-05-11T12:42:26;97775.81;;;13.90;83.35
22104;BME280;11218;48.886;9.426;2023-05-11T12:44:55;97773.34;;;13.98;82.72
22104;BME280;11218;48.886;9.426;2023-05-11T12:47:23;97766.59;;;13.96;81.54
22104;BME280;11218;48.886;9.426;2023-05-11T12:49:51;97768.22;;;13.97;82.45
22104;BME280;11218;48.886;9.426;2023-05-11T12:52:22;97766.84;;;13.99;81.53
22104;BME280;11218;48.886;9.426;2023-05-11T12:54:50;97762.47;;;14.08;82.58
22104;BME280;11218;48.886;9.426;2023-05-11T12:57:26;97752.47;;;14.09;80.41
22104;BME280;11218;48.886;9.426;2023-05-11T13:00:06;97752.94;;;14.16;79.24
22104;BME280;11218;48.886;9.426;2023-05-11T13:02:42;97759.94;;;14.22;81.94
22104;BME280;11218;48.886;9.426;2023-05-11T13:05:12;97747.47;;;14.26;74.57
22104;BME280;11218;48.886;9.426;2023-05-11T13:07:41;97748.03;;;14.18;74.25
22104;BME280;11218;48.886;9.426;2023-05-11T13:10:11;97745.88;;;14.20;75.18
22104;BME280;11218;48.886;9.426;2023-05-11T13:12:51;97757.22;;;14.22;76.39
22104;BME280;11218;48.886;9.426;2023-05-11T13:15:21;97749.00;;;14.42;77.71
22104;BME280;11218;48.886;9.426;2023-05-11T13:17:55;97743.03;;;14.45;73.85
22104;BME280;11218;48.886;9.426;2023-05-11T13:20:25;97745.75;;;14.45;73.69
22104;BME280;11218;48.886;9.426;2023-05-11T13:23:03;97742.19;;;14.50;73.72
22104;BME280;11218;48.886;9.426;2023-05-11T13:25:32;97729.66;;;14.59;73.42
22104;BME280;11218;48.886;9.426;2023-05-11T13:28:03;97734.19;;;14.69;74.74